Hauptseite
METAR-TAF:

METAR-TAF

Flughäfen :

Humberside Airport

Humberside, England

Breite: 53-35N, Länge: 000-21W, Höhe: 31 m

Beobachtung

Neuester Wetterbericht von vor 11 Minuten, um 07:50 UTC
Wind 4 kt aus West/Südwest
Temperatur 9°C
Luftfeuchtigkeit 87%
Luftdruck 1030 hPa
Sichtweite 10 km oder mehr
keine Wolken unter 1500 m und keine Kumulonimbus oder Gewitterwolken

METAR: EGNJ 180750Z 24004KT CAVOK 09/07 Q1030

Zeit: 09:01 (08:01 UTC)

Prognose

Neuester Wetterbericht von vor 3 Stunden und 3 Minuten, um 04:58 UTC
Gültige Prognose vom 18 um 06 UTC bis 18 um 15 UTC
Wind 4 kt aus Südwest
Sichtweite 10 km oder mehr
Leicht bewölkt in der Höhe von 4000 ft

TAF: EGNJ 180458Z 1806/1815 23004KT 9999 FEW040

Wetterbeobachtungen und Prognosen von mehr als 4000 Flughäfen (METAR und TAF Bericht).

Die verfügbaren Stationen werden durch gelbe und rote Markierungen auf der Karte dargestellt.

Führen Sie die Maus auf sie, um den Namen der Station zu sehen.

Darauf klicken, um die Beobachtung von Wetterbeobachtungen und Prognosen zu sehen.

Um die Karte zu ändern : klicken Sie auf den grünen Tasten mit einem schwarzen Kreuz Zum Vergrößern, auf den grünen Button mit einem Gedankenstrich zu verkleinern, oder auf die grünen Pfeile für benachbarte Karten.


METAR-TAF: